createdAt,value
2023-09-14T00:00:15.506Z,98.5
2023-09-14T00:03:16.511Z,98.6
2023-09-14T00:12:19.584Z,98.4
2023-09-14T00:15:20.611Z,98.3
2023-09-14T00:18:21.635Z,98.4
2023-09-14T00:21:22.648Z,98.5
2023-09-14T00:24:23.668Z,98.1
2023-09-14T00:25:40.065Z,97.8
2023-09-14T00:27:24.681Z,97.9
2023-09-14T00:30:25.725Z,97.8
2023-09-14T00:36:27.767Z,97
2023-09-14T00:39:28.790Z,97.6
2023-09-14T00:42:29.821Z,97.3
2023-09-14T00:45:30.832Z,96.8
2023-09-14T00:48:31.846Z,96.9
2023-09-14T00:51:32.884Z,97.3
2023-09-14T00:54:33.898Z,97.2
2023-09-14T00:55:50.316Z,96.5
2023-09-14T01:09:39.023Z,95.8
2023-09-14T01:12:40.034Z,96.2
2023-09-14T01:15:41.048Z,96.1
2023-09-14T01:18:42.076Z,95.7
2023-09-14T01:21:43.096Z,95.5
2023-09-14T01:27:45.148Z,95.6
2023-09-14T01:30:46.182Z,95.7
2023-09-14T01:33:47.194Z,95
2023-09-14T01:39:49.222Z,94.8
2023-09-14T01:42:50.257Z,95.3
2023-09-14T01:48:52.292Z,95.3
2023-09-14T01:51:53.327Z,95.3
2023-09-14T01:56:10.813Z,95.3
2023-09-14T01:57:55.375Z,95.6
2023-09-14T02:03:57.406Z,95
2023-09-14T02:06:58.435Z,95.5
2023-09-14T02:16:01.494Z,94.4
2023-09-14T02:19:02.532Z,94.4
2023-09-14T02:22:03.551Z,94.6
2023-09-14T02:25:04.583Z,93.9
2023-09-14T02:34:07.631Z,93.6
2023-09-14T02:40:09.697Z,92.2
2023-09-14T02:43:10.703Z,93
2023-09-14T02:46:11.746Z,93.7
2023-09-14T02:49:12.759Z,92.4
2023-09-14T02:52:13.795Z,92.4
2023-09-14T02:55:14.788Z,91.7
2023-09-14T03:01:16.858Z,91.3
2023-09-14T03:04:17.890Z,91
2023-09-14T03:10:19.898Z,91.6
2023-09-14T03:13:20.946Z,91.2
2023-09-14T03:16:21.962Z,91.3
2023-09-14T03:19:23.001Z,92.1
2023-09-14T03:22:24.010Z,92
2023-09-14T03:28:26.057Z,93.1
2023-09-14T03:40:30.151Z,93.3
2023-09-14T03:43:31.176Z,92.7
2023-09-14T03:46:32.198Z,93
2023-09-14T03:55:35.272Z,92.3
2023-09-14T03:56:51.787Z,91.7
2023-09-14T04:04:38.306Z,91.2
2023-09-14T04:07:39.334Z,91.3
2023-09-14T04:10:40.378Z,91.5
2023-09-14T04:13:41.402Z,91.5
2023-09-14T04:16:42.424Z,91.8
2023-09-14T04:19:43.424Z,91.8
2023-09-14T04:22:44.448Z,91.8
2023-09-14T04:25:45.496Z,90.9
2023-09-14T04:27:02.042Z,92
2023-09-14T04:28:46.490Z,91.2
2023-09-14T04:31:47.515Z,90.7
2023-09-14T04:34:48.540Z,91
2023-09-14T04:37:49.558Z,91.8
2023-09-14T04:40:50.608Z,91.7
2023-09-14T04:43:51.632Z,92.4
2023-09-14T04:49:53.688Z,92
2023-09-14T04:52:54.682Z,91.5
2023-09-14T04:57:12.258Z,92.3
2023-09-14T04:58:56.722Z,92.1
2023-09-14T05:04:58.791Z,92.4
2023-09-14T05:07:59.785Z,91.7
2023-09-14T05:11:00.812Z,91.9
2023-09-14T05:14:01.842Z,92.7
2023-09-14T05:17:02.861Z,92.5
2023-09-14T05:26:05.934Z,93.2
2023-09-14T05:27:22.535Z,93.2
2023-09-14T05:29:06.947Z,93.1
2023-09-14T05:32:07.976Z,92.8
2023-09-14T05:35:09.010Z,92.9
2023-09-14T05:38:10.019Z,92.2
2023-09-14T05:41:11.045Z,92.3
2023-09-14T05:44:12.084Z,92.9
2023-09-14T05:47:13.086Z,92.9
2023-09-14T05:53:15.162Z,92
2023-09-14T05:56:16.181Z,91.9
2023-09-14T05:57:32.754Z,92.4
2023-09-14T05:59:17.185Z,92.2
2023-09-14T06:02:18.233Z,92.5
2023-09-14T06:08:20.275Z,92.4
2023-09-14T06:11:21.303Z,92.2
2023-09-14T06:14:22.320Z,92.5
2023-09-14T06:17:23.340Z,92.5
2023-09-14T06:20:24.372Z,92.4
2023-09-14T06:23:25.358Z,91.7
2023-09-14T06:26:26.393Z,92.9
2023-09-14T06:29:27.444Z,92
2023-09-14T06:32:28.425Z,92.3
2023-09-14T06:35:29.457Z,92.4
2023-09-14T06:38:30.471Z,91.9
2023-09-14T06:41:31.509Z,92
2023-09-14T06:47:33.542Z,91.8
2023-09-14T06:50:34.598Z,90.7
2023-09-14T06:53:35.594Z,91.5
2023-09-14T06:56:36.614Z,90.5
2023-09-14T06:59:37.672Z,89.4
2023-09-14T07:02:38.663Z,89.1
2023-09-14T07:05:39.719Z,89.6
2023-09-14T07:14:42.749Z,88.6
2023-09-14T07:20:44.801Z,86.7
2023-09-14T07:23:45.812Z,86.9
2023-09-14T07:26:46.836Z,85.1
2023-09-14T07:29:47.871Z,85.7
2023-09-14T07:32:48.919Z,85.7
2023-09-14T07:41:51.985Z,84
2023-09-14T07:47:53.994Z,83.3
2023-09-14T07:50:55.046Z,83.5
2023-09-14T07:53:56.072Z,81.9
2023-09-14T07:58:13.731Z,81.8
2023-09-14T07:59:58.117Z,80.4
2023-09-14T08:02:59.106Z,80.7
2023-09-14T08:06:00.136Z,81.3
2023-09-14T08:09:01.196Z,80.4
2023-09-14T08:12:02.183Z,78.7
2023-09-14T08:18:04.255Z,76.1
2023-09-14T08:21:05.285Z,76.7
2023-09-14T08:24:06.272Z,73.7
2023-09-14T08:27:07.327Z,73.1
2023-09-14T08:30:08.314Z,70.6
2023-09-14T08:36:10.411Z,71.9
2023-09-14T08:39:11.398Z,70.6
2023-09-14T08:42:12.409Z,71.3
2023-09-14T08:45:13.469Z,72.4
2023-09-14T08:48:14.503Z,70.6
2023-09-14T08:54:16.532Z,71.5
2023-09-14T08:57:17.523Z,68.2
2023-09-14T09:03:19.575Z,69.3
2023-09-14T09:06:20.610Z,70
2023-09-14T09:12:22.677Z,63.9
2023-09-14T09:15:23.665Z,63.5
2023-09-14T09:18:24.718Z,58.6
2023-09-14T09:21:25.755Z,58.9
2023-09-14T09:24:26.766Z,59.7
2023-09-14T09:28:44.505Z,63.7
2023-09-14T09:30:28.807Z,66.4
2023-09-14T09:33:29.801Z,66.5
2023-09-14T09:36:30.830Z,64.3
2023-09-14T09:39:31.888Z,63.8
2023-09-14T09:42:32.903Z,63.3
2023-09-14T09:45:33.925Z,63.6
2023-09-14T09:48:34.959Z,64.8
2023-09-14T09:51:35.977Z,65.5
2023-09-14T09:54:36.973Z,64.2
2023-09-14T09:57:37.984Z,65.5
2023-09-14T09:58:54.755Z,64.3
2023-09-14T10:03:40.043Z,65.4
2023-09-14T10:06:41.056Z,66
2023-09-14T10:09:42.078Z,66.2
2023-09-14T10:12:43.094Z,68.7
2023-09-14T10:15:44.135Z,66
2023-09-14T10:18:45.178Z,64.1
2023-09-14T10:21:46.179Z,65.5
2023-09-14T10:24:47.224Z,64.2
2023-09-14T10:27:48.249Z,64.7
2023-09-14T10:29:05.008Z,64.9
2023-09-14T10:30:49.233Z,64.3
2023-09-14T10:33:50.308Z,63
2023-09-14T10:36:51.281Z,57.6
2023-09-14T10:39:52.313Z,61.6
2023-09-14T10:42:53.365Z,61.8
2023-09-14T10:48:55.410Z,63.8
2023-09-14T10:51:56.399Z,62.5
2023-09-14T10:54:57.469Z,63.8
2023-09-14T10:57:58.452Z,63.9
2023-09-14T11:04:00.491Z,60.2
2023-09-14T11:07:01.519Z,58.4
2023-09-14T11:10:02.584Z,59.4
2023-09-14T11:13:03.603Z,58.9
2023-09-14T11:19:05.612Z,59
2023-09-14T11:22:06.641Z,59.2
2023-09-14T11:28:08.719Z,63.3
2023-09-14T11:29:25.472Z,65.7
2023-09-14T11:31:09.752Z,66
2023-09-14T11:37:11.796Z,67.6
2023-09-14T11:43:13.833Z,67
2023-09-14T11:46:14.870Z,66.8
2023-09-14T11:49:15.889Z,67
2023-09-14T11:52:16.859Z,66.6
2023-09-14T11:55:17.934Z,65.8
2023-09-14T11:58:18.909Z,65.9
2023-09-14T11:59:35.765Z,65.5
2023-09-14T12:01:19.932Z,65.4
2023-09-14T12:04:21.006Z,63.9
2023-09-14T12:07:21.985Z,64.7
2023-09-14T12:10:22.995Z,66.6
2023-09-14T12:13:24.029Z,66.9
2023-09-14T12:16:25.043Z,66.4
2023-09-14T12:19:26.066Z,64.7
2023-09-14T12:22:27.093Z,62.6
2023-09-14T12:25:28.123Z,65.2
2023-09-14T12:28:29.151Z,66.4
2023-09-14T12:29:46.014Z,66.2
2023-09-14T12:34:31.187Z,61.7
2023-09-14T12:37:32.210Z,60.2
2023-09-14T12:40:33.239Z,59.9
2023-09-14T12:43:34.310Z,62.5
2023-09-14T12:55:38.344Z,62.6
2023-09-14T12:58:39.407Z,62.9
2023-09-14T12:59:56.250Z,60.8
2023-09-14T13:01:40.386Z,62
2023-09-14T13:04:41.412Z,63.2
2023-09-14T13:07:42.470Z,61.7
2023-09-14T13:10:43.456Z,62.4
2023-09-14T13:13:44.489Z,63.2
2023-09-14T13:16:45.544Z,63.6
2023-09-14T13:19:46.564Z,62.7
2023-09-14T13:25:48.607Z,62.8
2023-09-14T13:28:49.588Z,63.5
2023-09-14T13:31:50.615Z,64.9
2023-09-14T13:34:51.635Z,64.5
2023-09-14T13:37:52.657Z,63.8
2023-09-14T13:40:53.730Z,64.2
2023-09-14T13:43:54.755Z,64.4
2023-09-14T13:46:55.743Z,64.2
2023-09-14T13:49:56.751Z,64.5
2023-09-14T13:52:57.782Z,63
2023-09-14T13:55:58.798Z,63.6
2023-09-14T13:58:59.819Z,65.5
2023-09-14T14:02:00.896Z,64.1
2023-09-14T14:08:02.904Z,64.1
2023-09-14T14:14:04.935Z,64.9
2023-09-14T14:17:05.964Z,63.8
2023-09-14T14:20:06.997Z,63.2
2023-09-14T14:23:08.002Z,62.6
2023-09-14T14:26:09.025Z,60.2
2023-09-14T14:29:10.099Z,62.3
2023-09-14T14:32:11.086Z,60.3
2023-09-14T14:35:12.144Z,58.7
2023-09-14T14:38:13.186Z,57.4
2023-09-14T14:41:14.199Z,54.9
2023-09-14T14:44:15.229Z,55.6
2023-09-14T14:47:16.252Z,54.9
2023-09-14T14:50:17.213Z,56.1
2023-09-14T14:53:18.279Z,56.1
2023-09-14T14:59:20.338Z,53.7
2023-09-14T15:02:21.351Z,54.9
2023-09-14T15:08:23.410Z,55.5
2023-09-14T15:11:24.370Z,56.6
2023-09-14T15:14:25.444Z,56
2023-09-14T15:17:26.479Z,55.8
2023-09-14T15:20:27.490Z,54.1
2023-09-14T15:23:28.511Z,56.4
2023-09-14T15:26:29.482Z,56
2023-09-14T15:29:30.566Z,55.1
2023-09-14T15:32:31.545Z,55.4
2023-09-14T15:41:34.615Z,56.8
2023-09-14T15:44:35.686Z,59.3
2023-09-14T15:47:36.660Z,58.5
2023-09-14T15:50:37.669Z,56.3
2023-09-14T15:53:38.686Z,54.2
2023-09-14T15:56:39.759Z,56.1
2023-09-14T15:59:40.799Z,57.2
2023-09-14T16:05:42.796Z,58.7
2023-09-14T16:08:43.862Z,58.1
2023-09-14T16:11:44.824Z,59.9
2023-09-14T16:14:45.900Z,60.6
2023-09-14T16:17:46.938Z,61.1
2023-09-14T16:23:48.921Z,62.4
2023-09-14T16:32:52.164Z,62.9
2023-09-14T16:36:09.461Z,63.7
2023-09-14T16:39:10.427Z,64
2023-09-14T16:45:12.469Z,63.9
2023-09-14T16:48:13.494Z,63.7
2023-09-14T16:54:15.592Z,67.7
2023-09-14T16:57:16.554Z,67.7
2023-09-14T17:00:17.642Z,68.9
2023-09-14T17:01:33.608Z,72
2023-09-14T17:03:18.658Z,73.1
2023-09-14T17:06:19.629Z,74.2
2023-09-14T17:09:20.703Z,73.8
2023-09-14T17:12:21.687Z,75.6
2023-09-14T17:15:22.694Z,73.1
2023-09-14T17:21:24.809Z,76.1
2023-09-14T17:24:25.825Z,78.8
2023-09-14T17:27:26.837Z,79.2
2023-09-14T17:30:27.820Z,78.5
2023-09-14T17:36:29.863Z,80.6
2023-09-14T17:39:30.891Z,83.2
2023-09-14T17:42:31.910Z,84.1
2023-09-14T17:45:32.930Z,83.9
2023-09-14T17:48:33.967Z,82.2
2023-09-14T17:51:34.975Z,81.6
2023-09-14T17:54:35.990Z,82
2023-09-14T17:57:37.036Z,83.3
2023-09-14T18:00:38.037Z,84.3
2023-09-14T18:01:54.080Z,82.7
2023-09-14T18:03:39.083Z,82.5
2023-09-14T18:06:40.103Z,83.5
2023-09-14T18:09:41.112Z,83.1
2023-09-14T18:12:42.139Z,83.8
2023-09-14T18:18:44.184Z,83.5
2023-09-14T18:21:45.204Z,83.8
2023-09-14T18:24:46.232Z,83.8
2023-09-14T18:27:47.256Z,85.6
2023-09-14T18:32:04.480Z,87.5
2023-09-14T18:33:49.307Z,87.2
2023-09-14T18:39:18.569Z,87.6
2023-09-14T18:42:19.611Z,87.3
2023-09-14T18:45:20.624Z,88.6
2023-09-14T18:48:21.643Z,89.5
2023-09-14T18:51:22.669Z,89.5
2023-09-14T18:54:23.676Z,88.6
2023-09-14T18:57:24.706Z,89
2023-09-14T19:00:25.723Z,89.9
2023-09-14T19:02:14.718Z,90.5
2023-09-14T19:03:31.072Z,90.6
2023-09-14T19:09:33.111Z,89.7
2023-09-14T19:12:34.158Z,91
2023-09-14T19:21:37.212Z,92.1
2023-09-14T19:27:39.251Z,93.2
2023-09-14T19:30:40.279Z,94.3
2023-09-14T19:33:41.290Z,93.7
2023-09-14T19:36:42.322Z,93.2
2023-09-14T19:39:43.348Z,93.7
2023-09-14T19:42:44.360Z,94.5
2023-09-14T19:45:45.395Z,94.6
2023-09-14T19:48:46.403Z,94.6
2023-09-14T19:54:48.445Z,94.9
2023-09-14T19:57:49.477Z,95.3
2023-09-14T20:00:50.510Z,95.4
2023-09-14T20:03:51.517Z,95.9
2023-09-14T20:06:52.538Z,95.9
2023-09-14T20:15:55.607Z,94.6
2023-09-14T20:18:56.648Z,95.8
2023-09-14T20:24:58.685Z,95.1
2023-09-14T20:27:59.712Z,93.9
2023-09-14T20:32:45.449Z,93
2023-09-14T20:34:01.764Z,94.7
2023-09-14T20:37:02.772Z,95.6
2023-09-14T20:40:03.816Z,96.3
2023-09-14T20:43:04.831Z,97
2023-09-14T20:46:05.846Z,95.8
2023-09-14T20:49:06.866Z,97.5
2023-09-14T20:52:07.919Z,97.9
2023-09-14T20:55:08.925Z,97
2023-09-14T20:58:09.937Z,97.1
2023-09-14T21:01:10.963Z,97.7
2023-09-14T21:07:13.092Z,97.6
2023-09-14T21:10:14.106Z,96.9
2023-09-14T21:13:15.127Z,95
2023-09-14T21:16:16.143Z,94.6
2023-09-14T21:19:17.174Z,94.9
2023-09-14T21:25:19.223Z,96.8
2023-09-14T21:31:21.270Z,98
2023-09-14T21:33:05.953Z,95.8
2023-09-14T21:34:22.287Z,95.3
2023-09-14T21:37:23.333Z,95
2023-09-14T21:40:24.335Z,95.2
2023-09-14T21:43:25.374Z,94.8
2023-09-14T21:46:26.415Z,95.7
2023-09-14T21:49:27.420Z,95.7
2023-09-14T21:52:28.427Z,96
2023-09-14T21:55:29.475Z,97.5
2023-09-14T21:58:30.480Z,97.7
2023-09-14T22:04:32.547Z,95.9
2023-09-14T22:07:33.582Z,96.4
2023-09-14T22:10:34.571Z,97.9
2023-09-14T22:13:35.623Z,98.5
2023-09-14T22:22:38.694Z,96.1
2023-09-14T22:28:40.733Z,96.4
2023-09-14T22:31:41.767Z,96
2023-09-14T22:33:26.485Z,97.2
2023-09-14T22:34:42.790Z,96.6
2023-09-14T22:37:43.816Z,96.5
2023-09-14T22:40:44.832Z,96
2023-09-14T22:43:45.873Z,96.5
2023-09-14T22:49:47.902Z,98.8
2023-09-14T22:55:49.952Z,98.8
2023-09-14T22:58:50.977Z,98.5
2023-09-14T23:03:36.741Z,100
2023-09-14T23:07:54.061Z,98.9
2023-09-14T23:10:55.069Z,99
2023-09-14T23:13:56.093Z,97.6
2023-09-14T23:22:59.176Z,99.1
2023-09-14T23:26:00.206Z,98.6
2023-09-14T23:29:01.239Z,97.9
2023-09-14T23:33:47.015Z,98.4
2023-09-14T23:35:03.280Z,97.7
2023-09-14T23:41:05.320Z,96.4
2023-09-14T23:44:06.344Z,95.6
2023-09-14T23:47:07.375Z,96.6
2023-09-14T23:53:09.408Z,96.9
